createdAt,value
2023-05-14T00:03:24.300Z,921.77778
2023-05-14T00:08:26.389Z,877.33333
2023-05-14T00:13:28.397Z,849.88235
2023-05-14T00:18:30.013Z,824
2023-05-14T00:23:31.614Z,799.55556
2023-05-14T00:28:33.195Z,787.83562
2023-05-14T00:33:34.872Z,776.43243
2023-05-14T00:38:36.478Z,744
2023-05-14T00:43:37.873Z,723.74684
2023-05-14T00:48:39.458Z,695.21951
2023-05-14T00:53:41.230Z,660.27907
2023-05-14T00:58:42.882Z,695.21951
2023-05-14T01:03:44.285Z,704.49383
2023-05-14T01:08:45.982Z,754.52632
2023-05-14T01:13:47.570Z,799.55556
2023-05-14T01:18:49.374Z,836.75362
2023-05-14T01:23:51.019Z,849.88235
2023-05-14T01:28:52.694Z,953.83607
2023-05-14T01:33:54.266Z,1227.33333
2023-05-14T01:38:55.851Z,1523.48718
2023-05-14T01:43:57.342Z,1565.05263
2023-05-14T01:48:58.671Z,1410.66667
2023-05-14T01:53:59.997Z,1128.61538
2023-05-14T01:59:01.681Z,1201.14286
2023-05-14T02:04:03.209Z,970.66667
2023-05-14T02:09:05.034Z,1106.26415
2023-05-14T02:14:06.329Z,1006.06897
2023-05-14T02:19:07.706Z,1006.06897
2023-05-14T02:24:09.090Z,906.5
2023-05-14T02:29:10.823Z,849.88235
2023-05-14T02:34:12.414Z,970.66667
2023-05-14T02:39:14.075Z,970.66667
2023-05-14T02:44:15.797Z,953.83607
2023-05-14T02:49:17.640Z,937.54839
2023-05-14T02:54:19.245Z,970.66667
2023-05-14T02:59:21.017Z,1044
2023-05-14T03:04:23.173Z,1006.06897
2023-05-14T03:09:25.334Z,970.66667
2023-05-14T03:14:27.092Z,970.66667
2023-05-14T03:19:28.549Z,836.75362
2023-05-14T03:24:30.207Z,824
2023-05-14T03:29:31.882Z,953.83607
2023-05-14T03:34:33.654Z,863.40299
2023-05-14T03:39:35.334Z,849.88235
2023-05-14T03:44:37.093Z,836.75362
2023-05-14T03:49:38.649Z,765.33333
2023-05-14T03:54:40.214Z,811.60563
2023-05-14T03:59:41.933Z,824
2023-05-14T04:04:43.670Z,765.33333
2023-05-14T04:09:45.997Z,836.75362
2023-05-14T04:14:47.752Z,891.69231
2023-05-14T04:19:49.294Z,921.77778
2023-05-14T04:24:50.884Z,836.75362
2023-05-14T04:29:52.556Z,824
2023-05-14T04:34:54.172Z,891.69231
2023-05-14T04:39:55.905Z,849.88235
2023-05-14T04:44:57.233Z,849.88235
2023-05-14T04:49:58.513Z,849.88235
2023-05-14T04:54:59.767Z,754.52632
2023-05-14T05:00:01.347Z,836.75362
2023-05-14T05:05:02.588Z,836.75362
2023-05-14T05:10:03.938Z,811.60563
2023-05-14T05:15:05.317Z,811.60563
2023-05-14T05:20:06.599Z,744
2023-05-14T05:25:08.052Z,811.60563
2023-05-14T05:30:09.375Z,765.33333
2023-05-14T05:35:10.773Z,723.74684
2023-05-14T05:40:12.420Z,765.33333
2023-05-14T05:45:14.137Z,723.74684
2023-05-14T05:50:15.529Z,744
2023-05-14T05:55:16.957Z,787.83562
2023-05-14T06:00:18.376Z,754.52632
2023-05-14T06:05:19.809Z,849.88235
2023-05-14T06:10:21.621Z,906.5
2023-05-14T06:15:23.481Z,863.40299
2023-05-14T06:20:25.300Z,636.13483
2023-05-14T06:25:27.126Z,553.90099
2023-05-14T06:30:28.737Z,668.70588
2023-05-14T06:35:30.357Z,765.33333
2023-05-14T06:40:31.993Z,906.5
2023-05-14T06:45:33.627Z,1006.06897
2023-05-14T06:50:35.451Z,1312.88889
2023-05-14T06:55:37.195Z,1755.76471
2023-05-14T07:00:38.489Z,2144
2023-05-14T07:05:40.051Z,1608.86486
2023-05-14T07:10:41.456Z,1344
2023-05-14T07:15:42.771Z,3366.22222
2023-05-14T07:20:44.103Z,4344
2023-05-14T07:25:45.747Z,6104
2023-05-14T07:30:47.327Z,8744
2023-05-14T07:35:48.897Z,8744
2023-05-14T07:40:50.575Z,10210.66667
2023-05-14T07:45:52.287Z,10210.66667
2023-05-14T07:50:53.944Z,12264
2023-05-14T07:55:55.513Z,15344
2023-05-14T08:00:57.146Z,12264
2023-05-14T08:05:58.389Z,8744
2023-05-14T08:10:59.920Z,15344
2023-05-14T08:16:01.368Z,15344
2023-05-14T08:21:03.737Z,30744
2023-05-14T08:26:05.399Z,20477.33333
2023-05-14T08:31:07.011Z,12264
2023-05-14T08:36:08.302Z,20477.33333
2023-05-14T08:41:09.584Z,30744
2023-05-14T08:46:11.234Z,20477.33333
2023-05-14T08:51:12.662Z,15344
2023-05-14T08:56:14.011Z,15344
2023-05-14T09:01:15.451Z,15344
2023-05-14T09:06:16.819Z,20477.33333
2023-05-14T09:11:18.510Z,61544
2023-05-14T09:16:19.965Z,30744
2023-05-14T09:21:21.260Z,30744
2023-05-14T09:26:22.571Z,30744
2023-05-14T09:31:23.831Z,61544
2023-05-14T09:36:25.128Z,30744
2023-05-14T09:41:26.385Z,30744
2023-05-14T09:46:27.719Z,30744
2023-05-14T09:51:29.198Z,30744
2023-05-14T09:56:30.877Z,30744
2023-05-14T10:01:32.625Z,30744
2023-05-14T10:06:34.228Z,30744
2023-05-14T10:11:36.285Z,30744
2023-05-14T10:16:38.136Z,61544
2023-05-14T10:21:39.506Z,61544
2023-05-14T10:26:41.112Z,61544
2023-05-14T10:31:42.957Z,61544
2023-05-14T10:36:44.303Z,61544
2023-05-14T10:41:45.606Z,61544
2023-05-14T10:46:47.321Z,61544
2023-05-14T10:51:49.021Z,0
2023-05-14T10:56:50.618Z,61544
2023-05-14T11:01:52.432Z,61544
2023-05-14T11:06:53.803Z,61544
2023-05-14T11:11:55.964Z,61544
2023-05-14T11:16:57.757Z,61544
2023-05-14T11:21:59.093Z,61544
2023-05-14T11:27:00.470Z,0
2023-05-14T11:32:01.899Z,61544
2023-05-14T11:37:03.344Z,61544
2023-05-14T11:42:04.777Z,61544
2023-05-14T11:47:06.153Z,61544
2023-05-14T11:52:07.749Z,0
2023-05-14T11:57:09.055Z,0
2023-05-14T12:02:10.542Z,61544
2023-05-14T12:07:11.848Z,61544
2023-05-14T12:12:13.427Z,61544
2023-05-14T12:17:14.944Z,0
2023-05-14T12:22:16.240Z,0
2023-05-14T12:27:17.624Z,0
2023-05-14T12:32:19.067Z,0
2023-05-14T12:37:20.349Z,0
2023-05-14T12:42:21.904Z,0
2023-05-14T12:47:23.535Z,61544
2023-05-14T12:52:36.780Z,0
2023-05-14T12:57:40.854Z,61544
2023-05-14T13:02:43.891Z,61544
2023-05-14T13:07:45.838Z,0
2023-05-14T13:12:47.588Z,61544
2023-05-14T13:17:49.352Z,0
2023-05-14T13:22:50.955Z,0
2023-05-14T13:27:52.444Z,0
2023-05-14T13:32:54.708Z,0
2023-05-14T13:37:56.762Z,0
2023-05-14T13:42:59.003Z,0
2023-05-14T13:48:01.065Z,0
2023-05-14T13:53:02.614Z,0
2023-05-14T13:58:04.316Z,0
2023-05-14T14:03:05.663Z,0
2023-05-14T14:08:21.973Z,0
2023-05-14T14:13:25.193Z,0
2023-05-14T14:18:27.080Z,0
2023-05-14T14:23:28.788Z,61544
2023-05-14T14:28:30.685Z,0
2023-05-14T14:33:32.334Z,0
2023-05-14T14:38:33.950Z,0
2023-05-14T14:43:35.679Z,0
2023-05-14T14:48:37.505Z,0
2023-05-14T14:53:39.441Z,0
2023-05-14T14:58:41.079Z,0
2023-05-14T15:03:42.803Z,61544
2023-05-14T15:08:44.439Z,0
2023-05-14T15:13:45.835Z,0
2023-05-14T15:18:47.597Z,0
2023-05-14T15:23:49.226Z,0
2023-05-14T15:28:50.893Z,61544
2023-05-14T15:33:52.809Z,61544
2023-05-14T15:38:54.574Z,61544
2023-05-14T15:43:56.161Z,61544
2023-05-14T15:48:57.948Z,61544
2023-05-14T15:53:59.501Z,30744
2023-05-14T15:59:00.763Z,30744
2023-05-14T16:04:02.261Z,20477.33333
2023-05-14T16:09:03.628Z,30744
2023-05-14T16:14:04.985Z,30744
2023-05-14T16:19:06.497Z,61544
2023-05-14T16:24:07.913Z,61544
2023-05-14T16:29:09.413Z,61544
2023-05-14T16:34:11.018Z,61544
2023-05-14T16:39:12.428Z,61544
2023-05-14T16:44:14.014Z,61544
2023-05-14T16:49:15.482Z,61544
2023-05-14T16:54:16.984Z,61544
2023-05-14T16:59:18.734Z,61544
2023-05-14T17:04:20.269Z,61544
2023-05-14T17:09:21.832Z,61544
2023-05-14T17:14:23.589Z,61544
2023-05-14T17:19:25.164Z,61544
2023-05-14T17:24:26.794Z,0
2023-05-14T17:29:28.344Z,0
2023-05-14T17:34:30.031Z,0
2023-05-14T17:39:31.540Z,0
2023-05-14T17:44:33.081Z,0
2023-05-14T17:49:34.664Z,0
2023-05-14T17:54:36.392Z,0
2023-05-14T17:59:38.275Z,0
2023-05-14T18:04:40.426Z,0
2023-05-14T18:09:42.544Z,0
2023-05-14T18:14:45.749Z,61544
2023-05-14T18:19:47.765Z,61544
2023-05-14T18:24:49.537Z,61544
2023-05-14T18:29:51.273Z,61544
2023-05-14T18:34:52.942Z,61544
2023-05-14T18:39:54.830Z,61544
2023-05-14T18:44:56.576Z,61544
2023-05-14T18:49:58.624Z,30744
2023-05-14T18:55:00.388Z,30744
2023-05-14T19:00:01.744Z,30744
2023-05-14T19:05:03.390Z,61544
2023-05-14T19:10:05.534Z,30744
2023-05-14T19:15:07.428Z,20477.33333
2023-05-14T19:20:09.282Z,20477.33333
2023-05-14T19:25:10.869Z,20477.33333
2023-05-14T19:30:12.433Z,10210.66667
2023-05-14T19:35:13.872Z,5077.33333
2023-05-14T19:40:15.504Z,5544
2023-05-14T19:45:17.358Z,8744
2023-05-14T19:50:19.186Z,12264
2023-05-14T19:55:20.525Z,15344
2023-05-14T20:00:21.866Z,15344
2023-05-14T20:05:23.746Z,20477.33333
2023-05-14T20:10:26.025Z,20477.33333
2023-05-14T20:15:27.920Z,15344
2023-05-14T20:20:31.955Z,15344
2023-05-14T20:25:34.797Z,15344
2023-05-14T20:30:36.134Z,15344
2023-05-14T20:35:37.834Z,15344
2023-05-14T20:40:39.185Z,15344
2023-05-14T20:45:40.562Z,20477.33333
2023-05-14T20:50:41.855Z,15344
2023-05-14T20:55:44.744Z,15344
2023-05-14T21:00:46.053Z,20477.33333
2023-05-14T21:05:47.547Z,20477.33333
2023-05-14T21:10:49.244Z,20477.33333
2023-05-14T21:15:50.646Z,20477.33333
2023-05-14T21:20:52.015Z,20477.33333
2023-05-14T21:25:53.434Z,15344
2023-05-14T21:30:54.758Z,10210.66667
2023-05-14T21:35:56.350Z,10210.66667
2023-05-14T21:40:57.790Z,12264
2023-05-14T21:45:59.045Z,15344
2023-05-14T21:51:00.765Z,15344
2023-05-14T21:56:02.009Z,12264
2023-05-14T22:01:03.352Z,6788.44444
2023-05-14T22:06:04.636Z,6788.44444
2023-05-14T22:11:05.901Z,6104
2023-05-14T22:16:12.879Z,6104
2023-05-14T22:21:15.727Z,8744
2023-05-14T22:26:17.477Z,8744
2023-05-14T22:31:19.065Z,10210.66667
2023-05-14T22:36:20.977Z,10210.66667
2023-05-14T22:41:22.625Z,12264
2023-05-14T22:46:24.552Z,10210.66667
2023-05-14T22:51:26.526Z,15344
2023-05-14T22:56:28.114Z,15344
2023-05-14T23:01:29.718Z,15344
2023-05-14T23:06:31.357Z,10210.66667
2023-05-14T23:11:33.001Z,10210.66667
2023-05-14T23:16:35.089Z,12264
2023-05-14T23:21:36.706Z,12264
2023-05-14T23:26:38.505Z,15344
2023-05-14T23:31:40.210Z,12264
2023-05-14T23:36:41.937Z,12264
2023-05-14T23:41:43.568Z,7644
2023-05-14T23:46:45.158Z,7644
2023-05-14T23:51:46.980Z,6788.44444
2023-05-14T23:56:48.476Z,7644
